Latest Coastal Weather Observations for Cape Grim

IDV60701

Issued at 1:32 am EST Sunday 25 June 2017 (issued every 10 minutes, with the page automatically refreshed every 10 minutes)

About coastal observations | Map of coastal stations | Coastal observations for VIC | Marine services | Other Formats
Station Details ID: 091331 Name: CAPE GRIM Lat: -40.68 Lon: 144.69 Height: 86.0 m
Data from the previous 72 hours. | See also: Recent months at Cape Grim
Date/Time
EST
Temp
°C
Wind Pressure Rain since
9am
mm
Weather Cloud Vis
km
Sea
Height
m
Swell
Dir  Spd
kts
Gust
kts
hPa Trend Height
m
Period
s
Dir
25/01:30am 9.3 W 19 31 1011.4 - 3.8 - Partly cloudy - - - - -
25/01:00am 9.3 W 21 32 1011.5 - 3.8 - Partly cloudy - - - - -
25/12:58am 9.4 W 19 32 1011.5 - 3.6 - Partly cloudy - - - - -
25/12:30am 9.3 WNW 17 24 1011.6 - 3.6 - Partly cloudy - - - - -
25/12:06am 10.2 W 19 30 1011.8 - 3.4 - Partly cloudy - - - - -
25/12:00am 9.9 W 19 25 1011.9 - 3.4 - Cloudy - - - - -
 
Date/Time
EST
Temp
°C
Wind Pressure Rain since
9am
mm
Weather Cloud Vis
km
Sea
Height
m
Swell
Dir  Spd
kts
Gust
kts
hPa Trend Height
m
Period
s
Dir
24/11:30pm 9.9 W 21 27 1012.1 - 3.4 - Partly cloudy - - - - -
24/11:15pm 9.2 W 17 29 1012.4 - 3.4 - Partly cloudy - - - - -
24/11:00pm 9.3 W 16 22 1012.4 - 3.4 - Partly cloudy - - - - -
24/10:44pm 9.5 W 16 26 1012.6 - 3.2 - Partly cloudy - - - - -
24/10:30pm 9.4 WNW 22 30 1012.7 - 3.2 - Partly cloudy - - - - -
24/10:11pm 10.1 W 19 30 1012.9 - 2.8 - Partly cloudy - - - - -
24/10:00pm 9.8 W 15 21 1013.0 - 2.8 - Partly cloudy - - - - -
24/09:33pm 9.1 W 19 29 1013.2 - 2.8 - Partly cloudy - - - - -
24/09:30pm 9.3 W 21 29 1013.2 - 2.8 - Partly cloudy - - - - -
24/09:11pm 9.1 W 19 29 1013.3 - 2.8 - Partly cloudy - - - - -
24/09:00pm 9.9 W 21 30 1013.3 - 2.8 - Cloudy - - - - -
24/08:58pm 9.8 W 20 30 1013.3 - 2.8 - Partly cloudy - - - - -
24/08:30pm 10.0 W 18 26 1013.5 - 2.8 - Partly cloudy - - - - -
24/08:08pm 9.8 W 15 25 1013.5 - 2.8 - Partly cloudy - - - - -
24/08:00pm 10.1 W 17 25 1013.6 - 2.8 - Partly cloudy - - - - -
24/07:30pm 10.0 W 15 22 1013.6 - 2.8 - Partly cloudy - - - - -
24/07:00pm 8.7 W 20 31 1013.8 - 2.8 - Partly cloudy - - - - -
24/06:30pm 9.0 W 17 31 1013.7 - 2.6 - Partly cloudy - - - - -
24/06:29pm 9.5 W 17 31 1013.6 - 2.6 - Partly cloudy - - - - -
24/06:00pm 9.7 W 15 24 1013.7 - 2.6 - Mostly cloudy - - - - -
24/05:30pm 10.2 W 17 28 1013.6 - 2.6 - Partly cloudy - - - - -
24/05:00pm 8.7 W 14 24 1013.7 - 2.6 - Partly cloudy - - - - -
24/04:41pm 9.6 WSW 15 28 1013.6 - 2.2 - Partly cloudy - - - - -
24/04:30pm 9.9 W 16 25 1013.7 - 2.2 - Partly cloudy - - - - -
24/04:26pm 9.7 W 15 25 1013.6 - 2.2 - Partly cloudy - - - - -
24/04:00pm 8.6 WSW 13 24 1013.7 - 2.2 - Partly cloudy - - - - -
24/03:43pm 8.9 W 15 25 1013.8 - 1.4 - Partly cloudy - - - - -
24/03:30pm 9.5 WSW 13 22 1013.7 - 1.4 - Partly cloudy - - - - -
24/03:00pm 8.7 WSW 15 25 1013.9 - 1.2 Rain Cloudy - - - - -
24/02:30pm 9.6 W 14 21 1013.7 - 0.8 - Partly cloudy - - - - -
24/02:00pm 9.4 W 16 28 1013.7 - 0.4 - Partly cloudy - - - - -
24/01:37pm 9.7 W 18 28 1013.7 - 0.2 - Partly cloudy - - - - -
24/01:30pm 10.0 W 16 23 1013.8 - 0.2 - Partly cloudy - - - - -
24/01:08pm 9.9 W 15 26 1013.9 - 0.2 - Partly cloudy - - - - -
24/01:00pm 10.4 W 13 24 1013.9 - 0.2 - Partly cloudy - - - - -
24/12:33pm 9.9 WSW 16 26 1014.3 - 0.2 - Partly cloudy - - - - -
24/12:30pm 9.5 W 16 25 1014.3 - 0.2 - Partly cloudy - - - - -
24/12:10pm 9.6 SW 16 26 1014.5 - 0.2 - Partly cloudy - - - - -
24/12:00pm 9.5 SW 19 27 1014.5 - 0.2 - Cloudy - - - - -
24/11:30am 9.8 WSW 15 26 1014.7 - 0.2 - Partly cloudy - - - - -
24/11:02am 9.8 WSW 15 25 1015.1 - 0.2 - Partly cloudy - - - - -
24/11:00am 10.0 WSW 15 24 1015.0 - 0.2 - Partly cloudy - - - - -
24/10:30am 9.0 WSW 13 24 1015.4 - 0.2 - Partly cloudy - - - - -
24/10:00am 9.4 SW 18 28 1015.1 - 0.2 - Partly cloudy - - - - -
24/09:35am 9.0 SW 15 27 1014.9 - 0.2 - Partly cloudy - - - - -
24/09:30am 8.7 WSW 15 23 1015.0 - 0.2 - Partly cloudy - - - - -
24/09:00am 9.2 WSW 18 29 1014.8 - 4.8 Recent precip. Mostly cloudy - - - - -
24/08:30am 8.4 WSW 16 30 1014.6 - 4.8 - Partly cloudy - - - - -
24/08:00am 9.1 SW 17 27 1014.2 - 4.4 - - - - - - -
24/07:43am 8.8 SW 22 32 1014.1 - 4.4 - Partly cloudy - - - - -
24/07:30am 8.7 SW 25 32 1014.0 - 4.4 - Partly cloudy - - - - -
24/07:00am 8.8 SW 26 36 1013.7 - 4.4 - Partly cloudy - - - - -
24/06:30am 9.1 SW 19 29 1013.3 - 4.4 - Partly cloudy - - - - -
24/06:15am 8.6 SW 23 30 1013.2 - 4.4 - Partly cloudy - - - - -
24/06:13am 8.9 SW 25 32 1013.3 - 4.4 - Partly cloudy - - - - -
24/06:01am 8.7 WSW 21 37 1013.1 - 4.4 - Partly cloudy - - - - -
24/06:00am 9.1 WSW 19 36 1013.1 - 4.4 Rain Cloudy - - - - -
24/05:30am 8.8 WSW 19 29 1013.0 - 4.2 - Partly cloudy - - - - -
24/05:00am 8.6 SW 20 34 1012.8 - 4.2 - Partly cloudy - - - - -
24/04:42am 8.7 SW 21 31 1012.8 - 4.2 - Partly cloudy - - - - -
24/04:30am 8.6 SW 25 32 1012.8 - 4.2 - Partly cloudy - - - - -
24/04:00am 8.7 SW 22 34 1012.7 - 4.2 - Partly cloudy - - - - -
24/03:30am 7.2 SW 26 37 1012.9 - 4.2 - Partly cloudy - - - - -
24/03:17am 8.5 SW 27 37 1012.7 - 4.2 - Partly cloudy - - - - -
24/03:07am 8.5 SW 24 37 1012.7 - 4.2 - Partly cloudy - - - - -
24/03:03am 9.4 SW 21 31 1012.5 - 4.2 - Partly cloudy - - - - -
24/03:00am 9.4 SW 21 30 1012.5 - 4.2 - Mostly cloudy - - - - -
24/02:39am 9.2 SW 21 31 1012.4 - 4.2 - Partly cloudy - - - - -
24/02:30am 9.1 SW 25 33 1012.3 - 4.2 - - - - - - -
24/02:09am 9.2 SW 21 31 1012.3 - 4.2 - Partly cloudy - - - - -
24/02:00am 8.9 SW 25 33 1012.3 - 4.2 - Partly cloudy - - - - -
24/01:34am 9.1 SW 25 35 1011.9 - 4.2 - Partly cloudy - - - - -
24/01:30am 9.0 SW 26 34 1011.9 - 4.2 - Partly cloudy - - - - -
24/01:01am 8.8 SW 25 35 1011.7 - 4.2 - - - - - - -
24/01:00am 8.7 SW 26 35 1011.7 - 4.2 - - - - - - -
24/12:55am 8.7 SW 25 35 1011.7 - 4.2 - Partly cloudy - - - - -
24/12:30am 8.7 SW 27 34 1011.8 - 4.2 - - - - - - -
24/12:00am 8.1 SW 33 46 1011.8 - 4.2 Recent precip. Partly cloudy - - - - -
 
Date/Time
EST
Temp
°C
Wind Pressure Rain since
9am
mm
Weather Cloud Vis
km
Sea
Height
m
Swell
Dir  Spd
kts
Gust
kts
hPa Trend Height
m
Period
s
Dir
23/11:50pm 8.9 SW 30 40 1011.5 - 4.2 - Partly cloudy - - - - -
23/11:37pm 8.0 SW 30 41 1011.4 - 4.2 - Partly cloudy - - - - -
23/11:30pm 8.3 SW 23 41 1011.4 - 4.2 - Partly cloudy - - - - -
23/11:00pm 7.6 SW 24 34 1011.3 - 4.0 - Partly cloudy - - - - -
23/10:58pm 8.6 SW 25 34 1011.5 - 4.0 - Partly cloudy - - - - -
23/10:38pm 8.3 SW 24 44 1011.1 - 4.0 - Partly cloudy - - - - -
23/10:30pm 9.1 WSW 18 32 1011.0 - 4.0 - Partly cloudy - - - - -
23/10:12pm 9.1 SW 25 38 1010.7 - 4.0 - Partly cloudy - - - - -
23/10:11pm 9.1 SW 26 38 1010.7 - 4.0 - Partly cloudy - - - - -
23/10:01pm 9.2 SW 29 41 1010.6 - 4.0 - Partly cloudy - - - - -
23/10:00pm 9.4 SW 28 39 1010.6 - 4.0 - Partly cloudy - - - - -
23/09:59pm 9.2 SW 27 38 1010.5 - 4.0 - Partly cloudy - - - - -
23/09:51pm 9.4 SW 25 35 1010.6 - 4.0 - Partly cloudy - - - - -
23/09:30pm 8.9 SW 31 39 1010.7 - 4.0 - Partly cloudy - - - - -
23/09:00pm 9.0 SW 26 38 1010.3 - 4.0 - Mostly cloudy - - - - -
23/08:30pm 9.4 SW 31 41 1009.8 - 4.0 - Partly cloudy - - - - -
23/08:00pm 9.6 SW 30 41 1009.1 - 4.0 - Partly cloudy - - - - -
23/07:30pm 9.8 SW 27 38 1008.9 - 4.0 - Partly cloudy - - - - -
23/07:15pm 9.6 SW 26 41 1008.6 - 4.0 - Partly cloudy - - - - -
23/07:00pm 9.2 SW 33 43 1008.6 - 4.0 - Partly cloudy - - - - -
23/06:31pm 8.4 SW 31 44 1008.4 - 4.0 - Partly cloudy - - - - -
23/06:30pm 8.7 SW 31 44 1008.4 - 4.0 - Partly cloudy - - - - -
23/06:29pm 8.7 SW 32 44 1008.4 - 4.0 - Partly cloudy - - - - -
23/06:00pm 8.5 SW 36 46 1007.8 - 3.8 Recent precip. Cloudy - - - - -
23/05:42pm 9.8 SW 33 44 1007.4 - 3.6 - Partly cloudy - - - - -
23/05:30pm 9.3 SW 32 41 1007.3 - 3.6 - Partly cloudy - - - - -
23/05:00pm 10.1 SW 33 41 1006.6 - 3.6 - Partly cloudy - - - - -
23/04:42pm 10.9 SW 28 41 1006.5 - 3.6 - Partly cloudy - - - - -
23/04:41pm 10.9 SW 28 42 1006.4 - 3.6 - Partly cloudy - - - - -
23/04:32pm 11.6 WSW 20 42 1006.2 - 3.6 - Partly cloudy - - - - -
23/04:30pm 11.7 WSW 20 36 1006.2 - 3.6 - Partly cloudy - - - - -
23/04:06pm 11.9 WSW 24 41 1006.1 - 3.6 - Partly cloudy - - - - -
23/04:00pm 12.4 W 23 36 1005.9 - 3.6 - Partly cloudy - - - - -
23/03:30pm 11.5 W 26 38 1006.2 - 3.6 - Partly cloudy - - - - -
23/03:00pm 11.5 W 22 32 1006.4 - 3.2 Rain Mostly cloudy - - - - -
23/02:34pm 13.3 WNW 26 38 1006.1 - 1.0 - Partly cloudy - - - - -
23/02:30pm 13.4 WNW 26 33 1006.2 - 1.0 - Partly cloudy - - - - -
23/02:00pm 13.3 WNW 28 35 1006.8 - 1.0 - Partly cloudy - - - - -
23/01:41pm 13.8 WNW 27 37 1006.9 - 1.0 - Partly cloudy - - - - -
23/01:30pm 13.7 WNW 26 31 1007.1 - 1.0 - Partly cloudy - - - - -
23/01:07pm 12.9 WNW 25 35 1007.4 - 1.0 - Partly cloudy - - - - -
23/01:00pm 13.0 WNW 25 32 1007.7 - 1.0 - Partly cloudy - - - - -
23/12:38pm 13.4 WNW 24 34 1008.1 - 0.0 - Partly cloudy - - - - -
23/12:30pm 14.2 WNW 23 30 1008.3 - 0.0 - Partly cloudy - - - - -
23/12:17pm 13.5 WNW 23 34 1008.6 - 0.0 - Partly cloudy - - - - -
23/12:00pm 13.7 WNW 23 31 1009.1 - 0.0 - Cloudy - - - - -
23/11:50am 13.4 WNW 23 33 1009.3 - 0.0 - Partly cloudy - - - - -
23/11:30am 13.8 WNW 22 31 1009.6 - 0.0 - Partly cloudy - - - - -
23/11:00am 13.6 WNW 24 29 1010.2 - 0.0 - Partly cloudy - - - - -
23/10:30am 13.0 WNW 21 27 1010.9 - 0.0 - Partly cloudy - - - - -
23/10:00am 11.5 NW 28 37 1011.1 - 0.0 - Partly cloudy - - - - -
23/09:52am 13.2 NW 26 37 1011.3 - 0.0 - Partly cloudy - - - - -
23/09:30am 13.1 NW 27 35 1011.7 - 0.0 - Partly cloudy - - - - -
23/09:19am 13.1 NW 25 35 1011.8 - 0.0 - Partly cloudy - - - - -
23/09:00am 13.0 NW 25 33 1011.9 - 0.2 - Mostly clear - - - - -
23/08:30am 13.0 WNW 24 33 1012.1 - 0.2 - Partly cloudy - - - - -
23/08:28am 13.0 WNW 23 33 1012.2 - 0.2 - Partly cloudy - - - - -
23/08:00am 13.1 WNW 25 31 1012.3 - 0.2 - Partly cloudy - - - - -
23/07:47am 13.0 WNW 24 34 1012.4 - 0.2 - Partly cloudy - - - - -
23/07:30am 13.4 WNW 26 35 1012.5 - 0.2 - Partly cloudy - - - - -
23/07:00am 13.1 WNW 26 38 1012.6 - 0.2 - - - - - - -
23/06:51am 13.2 WNW 27 38 1012.6 - 0.2 - Partly cloudy - - - - -
23/06:30am 13.3 WNW 27 35 1012.7 - 0.2 - - - - - - -
23/06:00am 13.3 WNW 25 35 1012.9 - 0.2 - Mostly clear - - - - -
23/05:58am 13.3 WNW 25 35 1012.9 - 0.2 - - - - - - -
23/05:30am 13.2 WNW 27 33 1013.0 - 0.2 - Partly cloudy - - - - -
23/05:00am 13.2 WNW 24 31 1013.3 - 0.2 - Partly cloudy - - - - -
23/04:30am 13.2 WNW 25 34 1013.8 - 0.2 - Partly cloudy - - - - -
23/04:00am 13.2 WNW 27 33 1014.1 - 0.2 - Partly cloudy - - - - -
23/03:30am 13.3 WNW 26 33 1014.4 - 0.2 - Partly cloudy - - - - -
23/03:00am 13.2 WNW 24 31 1014.8 - 0.2 - Cloudy - - - - -
23/02:30am 13.4 WNW 29 38 1014.9 - 0.2 - Partly cloudy - - - - -
23/02:00am 13.4 WNW 25 37 1015.1 - 0.2 - Partly cloudy - - - - -
23/01:49am 13.4 WNW 25 35 1015.2 - 0.2 - Partly cloudy - - - - -
23/01:30am 13.3 NW 24 33 1015.5 - 0.2 - Partly cloudy - - - - -
23/01:27am 13.1 NW 23 33 1015.5 - 0.2 - Partly cloudy - - - - -
23/01:00am 13.2 NW 22 29 1016.0 - 0.2 - Partly cloudy - - - - -
23/12:30am 13.0 NW 21 26 1016.6 - 0.2 - Partly cloudy - - - - -
23/12:00am 12.9 NW 19 25 1017.0 - 0.2 Recent precip. Cloudy - - - - -
 
Date/Time
EST
Temp
°C
Wind Pressure Rain since
9am
mm
Weather Cloud Vis
km
Sea
Height
m
Swell
Dir  Spd
kts
Gust
kts
hPa Trend Height
m
Period
s
Dir
22/11:30pm 12.6 NW 18 24 1017.5 - 0.0 - Partly cloudy - - - - -
22/11:18pm 12.7 NW 17 24 1017.8 - 0.0 - Partly cloudy - - - - -
22/11:00pm 12.7 NNW 18 24 1018.1 - 0.0 - Partly cloudy - - - - -
22/10:56pm 12.7 NW 17 23 1018.1 - 0.0 - Partly cloudy - - - - -
22/10:30pm 12.8 NW 17 22 1018.5 - 0.0 - Partly cloudy - - - - -
22/10:00pm 12.7 NW 17 24 1018.7 - 0.0 - Partly cloudy - - - - -
22/09:30pm 12.7 NW 18 25 1019.1 - 0.0 - Partly cloudy - - - - -
22/09:00pm 12.6 NW 19 26 1019.2 - 0.0 - Cloudy - - - - -
22/08:30pm 12.5 NW 17 24 1019.7 - 0.0 - Partly cloudy - - - - -
22/08:00pm 12.3 NNW 13 17 1020.0 - 0.0 - Partly cloudy - - - - -
22/07:30pm 11.6 NNW 10 14 1020.1 - 0.0 - Partly cloudy - - - - -
22/07:00pm 11.6 NW 10 15 1020.5 - 0.0 - Partly cloudy - - - - -
22/06:30pm 11.3 NW 11 13 1020.6 - 0.0 - Partly cloudy - - - - -
22/06:00pm 10.5 NW 9 12 1020.7 - 0.0 - Cloudy - - - - -
22/05:30pm 10.6 WNW 10 14 1021.1 - 0.0 - Partly cloudy - - - - -
22/05:00pm 11.0 W 14 18 1021.4 - 0.0 - Partly cloudy - - - - -
22/04:38pm 11.4 WNW 12 21 1021.5 - 0.0 - Partly cloudy - - - - -
22/04:30pm 11.3 NW 8 13 1021.5 - 0.0 - Partly cloudy - - - - -
22/04:00pm 11.3 NNW 16 19 1021.8 - 0.0 - Partly cloudy - - - - -
22/03:30pm 11.4 NW 15 19 1022.0 - 0.0 - Partly cloudy - - - - -
22/03:00pm 11.3 NW 14 19 1022.2 - 0.0 - Partly cloudy - - - - -
22/02:30pm 11.1 NW 12 15 1022.5 - 0.0 - Partly cloudy - - - - -
22/02:00pm 11.9 NNW 14 17 1022.9 - 0.0 - Partly cloudy - - - - -
22/01:30pm 11.3 NNW 16 19 1023.3 - 0.0 - Partly cloudy - - - - -
22/01:00pm 11.1 NNW 15 21 1023.9 - 0.0 - Partly cloudy - - - - -
22/12:30pm 11.0 NNW 14 18 1024.3 - 0.0 - Cloudy - - - - -
22/12:00pm 11.5 NNW 13 17 1024.8 - 0.0 - Partly cloudy - - - - -
22/11:30am 11.7 NNW 13 17 1025.4 - 0.0 - Partly cloudy - - - - -
22/11:00am 10.8 N 12 15 1025.8 - 0.0 - Partly cloudy - - - - -
22/10:30am 10.4 NE 8 11 1026.1 - 0.0 - Partly cloudy - - - - -
22/10:00am 8.2 ENE 9 11 1026.3 - 0.0 - Partly cloudy - - - - -
22/09:30am 6.8 E 12 13 1026.2 - 0.0 - Cloudy - - - - -
22/09:00am 6.3 E 10 13 1026.5 - 0.0 - Cloudy - - - - -
22/08:30am 6.0 E 10 12 1026.6 - 0.0 - Partly cloudy - - - - -
22/08:00am 4.1 E 12 13 1026.7 - 0.0 - - - - - - -
22/07:30am 3.7 E 11 12 1026.7 - 0.0 - - - - - - -
22/07:00am 3.8 E 11 12 1026.6 - 0.0 - - - - - - -
22/06:30am 4.1 E 11 11 1026.6 - 0.0 - - - - - - -
22/06:00am 5.5 E 10 11 1026.9 - 0.0 - Cloudy - - - - -
22/05:30am 5.3 E 9 11 1027.0 - 0.0 - Partly cloudy - - - - -
22/05:00am 5.1 E 8 9 1027.0 - 0.0 - Partly cloudy - - - - -
22/04:30am 6.9 E 4 5 1027.3 - 0.0 - Partly cloudy - - - - -
22/04:00am 6.7 E 6 7 1027.4 - 0.0 - Partly cloudy - - - - -
22/03:30am 6.2 E 6 7 1027.5 - 0.0 - Partly cloudy - - - - -
22/03:00am 6.0 E 8 8 1027.6 - 0.0 - Cloudy - - - - -
22/02:30am 5.6 E 8 9 1027.8 - 0.0 - Partly cloudy - - - - -
22/02:00am 6.7 E 9 10 1027.9 - 0.0 - Cloudy - - - - -

Other Formats:

Comma delimited format used in spreadsheet applications
http://www.bom.gov.au/fwo/IDV60701/IDV60701.95954.axf

JavaScript Object Notation format (JSON) in row-major order
http://www.bom.gov.au/fwo/IDV60701/IDV60701.95954.json